createdAt,value
2022-07-30T00:00:34.622Z,1.87
2022-07-30T00:03:02.338Z,2.03
2022-07-30T00:05:30.057Z,1.90
2022-07-30T00:07:57.789Z,1.93
2022-07-30T00:10:25.533Z,1.90
2022-07-30T00:12:54.746Z,1.77
2022-07-30T00:15:22.447Z,1.70
2022-07-30T00:17:50.228Z,2.00
2022-07-30T00:20:18.690Z,2.20
2022-07-30T00:22:46.851Z,2.00
2022-07-30T00:25:14.633Z,2.00
2022-07-30T00:27:42.857Z,1.70
2022-07-30T00:30:13.435Z,2.17
2022-07-30T00:32:41.494Z,1.80
2022-07-30T00:35:10.176Z,2.23
2022-07-30T00:37:37.916Z,1.87
2022-07-30T00:40:07.167Z,1.90
2022-07-30T00:42:39.091Z,1.80
2022-07-30T00:45:08.555Z,2.20
2022-07-30T00:47:38.252Z,1.50
2022-07-30T00:50:07.739Z,1.90
2022-07-30T00:52:36.058Z,1.90
2022-07-30T00:55:04.587Z,2.10
2022-07-30T00:57:32.662Z,1.97
2022-07-30T01:00:00.388Z,1.70
2022-07-30T01:02:28.203Z,1.63
2022-07-30T01:04:57.355Z,1.80
2022-07-30T01:07:27.222Z,1.63
2022-07-30T01:09:55.141Z,2.10
2022-07-30T01:12:26.846Z,1.80
2022-07-30T01:14:56.501Z,1.97
2022-07-30T01:17:24.464Z,2.23
2022-07-30T01:19:55.840Z,2.10
2022-07-30T01:22:38.769Z,1.80
2022-07-30T01:25:13.149Z,2.10
2022-07-30T01:27:45.391Z,2.17
2022-07-30T01:30:17.830Z,1.83
2022-07-30T01:32:46.965Z,1.97
2022-07-30T01:35:16.727Z,2.20
2022-07-30T01:37:45.827Z,2.13
2022-07-30T01:40:14.701Z,2.10
2022-07-30T01:42:46.208Z,2.47
2022-07-30T01:45:14.791Z,2.10
2022-07-30T01:47:44.817Z,2.23
2022-07-30T01:50:15.171Z,2.03
2022-07-30T01:52:45.010Z,1.90
2022-07-30T01:55:18.051Z,1.97
2022-07-30T01:57:48.905Z,1.97
2022-07-30T02:00:18.301Z,1.60
2022-07-30T02:02:46.872Z,2.03
2022-07-30T02:05:14.816Z,2.00
2022-07-30T02:07:49.482Z,1.90
2022-07-30T02:10:24.416Z,1.70
2022-07-30T02:12:55.576Z,1.80
2022-07-30T02:15:29.793Z,2.00
2022-07-30T02:18:02.788Z,1.90
2022-07-30T02:20:35.856Z,1.67
2022-07-30T02:23:10.698Z,1.57
2022-07-30T02:25:43.293Z,1.73
2022-07-30T02:28:14.994Z,1.40
2022-07-30T02:30:49.265Z,1.90
2022-07-30T02:33:20.205Z,1.83
2022-07-30T02:35:49.642Z,1.57
2022-07-30T02:38:20.754Z,1.50
2022-07-30T02:40:50.062Z,1.70
2022-07-30T02:43:20.880Z,1.53
2022-07-30T02:45:49.510Z,1.57
2022-07-30T02:48:34.406Z,1.30
2022-07-30T02:51:05.381Z,1.63
2022-07-30T02:53:35.132Z,1.40
2022-07-30T02:56:04.061Z,1.40
2022-07-30T02:58:33.910Z,1.60
2022-07-30T03:01:03.381Z,1.30
2022-07-30T03:03:32.772Z,1.20
2022-07-30T03:06:02.425Z,1.50
2022-07-30T03:08:32.889Z,1.40
2022-07-30T03:11:01.596Z,1.37
2022-07-30T03:13:29.390Z,1.33
2022-07-30T03:16:00.188Z,1.60
2022-07-30T03:18:34.003Z,1.40
2022-07-30T03:21:03.596Z,1.53
2022-07-30T03:23:36.644Z,1.77
2022-07-30T03:26:08.503Z,1.70
2022-07-30T03:28:39.071Z,1.63
2022-07-30T03:31:10.607Z,1.53
2022-07-30T03:33:41.404Z,1.60
2022-07-30T03:36:10.629Z,1.40
2022-07-30T03:38:40.228Z,1.60
2022-07-30T03:41:09.367Z,1.70
2022-07-30T03:43:38.830Z,1.90
2022-07-30T03:46:08.805Z,1.50
2022-07-30T03:48:37.128Z,1.80
2022-07-30T03:51:07.352Z,1.70
2022-07-30T03:53:35.305Z,1.90
2022-07-30T03:56:04.099Z,1.77
2022-07-30T03:58:34.039Z,1.50
2022-07-30T04:01:04.289Z,1.63
2022-07-30T04:03:34.779Z,1.27
2022-07-30T04:06:02.566Z,1.50
2022-07-30T04:08:30.385Z,1.50
2022-07-30T04:10:58.566Z,1.40
2022-07-30T04:13:26.326Z,1.87
2022-07-30T04:16:37.388Z,1.30
2022-07-30T04:18:52.547Z,1.40
2022-07-30T04:21:26.028Z,1.50
2022-07-30T04:24:01.886Z,1.50
2022-07-30T04:26:34.147Z,1.27
2022-07-30T04:29:02.698Z,1.40
2022-07-30T04:31:40.612Z,1.40
2022-07-30T04:34:14.682Z,1.27
2022-07-30T04:36:43.543Z,1.50
2022-07-30T04:39:12.132Z,1.40
2022-07-30T04:41:48.649Z,1.20
2022-07-30T04:44:19.019Z,1.20
2022-07-30T04:46:47.323Z,1.20
2022-07-30T04:49:19.984Z,1.10
2022-07-30T04:51:48.658Z,1.20
2022-07-30T04:54:17.658Z,1.20
2022-07-30T04:56:53.284Z,1.37
2022-07-30T04:59:24.819Z,1.27
2022-07-30T05:01:54.556Z,1.20
2022-07-30T05:04:25.679Z,1.40
2022-07-30T05:06:54.813Z,1.40
2022-07-30T05:09:24.081Z,1.20
2022-07-30T05:11:52.640Z,1.20
2022-07-30T05:14:20.560Z,1.10
2022-07-30T05:16:48.400Z,1.20
2022-07-30T05:19:16.487Z,1.20
2022-07-30T05:21:45.669Z,1.10
2022-07-30T05:24:13.608Z,1.40
2022-07-30T05:26:41.726Z,1.00
2022-07-30T05:29:09.500Z,1.00
2022-07-30T05:31:47.540Z,1.40
2022-07-30T05:34:15.288Z,1.40
2022-07-30T05:36:44.591Z,1.30
2022-07-30T05:39:14.076Z,1.27
2022-07-30T05:41:41.893Z,1.07
2022-07-30T05:44:09.588Z,1.27
2022-07-30T05:46:37.361Z,1.07
2022-07-30T05:49:06.397Z,0.90
2022-07-30T05:51:34.182Z,1.13
2022-07-30T05:54:01.982Z,1.00
2022-07-30T05:56:31.136Z,0.90
2022-07-30T05:58:58.914Z,1.10
2022-07-30T06:01:26.889Z,1.10
2022-07-30T06:03:54.680Z,1.10
2022-07-30T06:06:23.245Z,1.50
2022-07-30T06:08:51.176Z,1.60
2022-07-30T06:11:19.009Z,1.00
2022-07-30T06:13:48.187Z,1.40
2022-07-30T06:16:16.041Z,1.20
2022-07-30T06:18:43.795Z,1.13
2022-07-30T06:21:11.692Z,1.20
2022-07-30T06:23:39.443Z,1.17
2022-07-30T06:26:07.285Z,1.30
2022-07-30T06:28:39.199Z,1.10
2022-07-30T06:31:08.998Z,1.30
2022-07-30T06:33:36.831Z,1.03
2022-07-30T06:36:04.971Z,1.23
2022-07-30T06:38:32.738Z,0.80
2022-07-30T06:41:02.906Z,1.10
2022-07-30T06:43:32.849Z,1.03
2022-07-30T06:46:00.820Z,0.80
2022-07-30T06:48:31.449Z,0.80
2022-07-30T06:50:59.179Z,0.73
2022-07-30T06:53:26.945Z,0.70
2022-07-30T06:55:58.340Z,1.00
2022-07-30T06:58:28.481Z,0.90
2022-07-30T07:00:56.210Z,0.80
2022-07-30T07:03:26.218Z,0.70
2022-07-30T07:06:09.857Z,0.93
2022-07-30T07:08:38.411Z,0.80
2022-07-30T07:11:06.370Z,0.80
2022-07-30T07:13:34.253Z,0.90
2022-07-30T07:16:02.442Z,0.80
2022-07-30T07:18:30.468Z,0.87
2022-07-30T07:20:58.247Z,0.90
2022-07-30T07:23:41.384Z,0.60
2022-07-30T07:26:10.021Z,0.60
2022-07-30T07:28:37.771Z,0.60
2022-07-30T07:31:05.722Z,0.70
2022-07-30T07:33:33.505Z,0.80
2022-07-30T07:36:01.241Z,0.60
2022-07-30T07:38:30.615Z,0.73
2022-07-30T07:40:58.483Z,0.77
2022-07-30T07:43:26.196Z,0.70
2022-07-30T07:45:54.181Z,0.80
2022-07-30T07:48:22.012Z,0.80
2022-07-30T07:50:49.819Z,0.60
2022-07-30T07:53:17.897Z,0.73
2022-07-30T07:55:47.103Z,0.87
2022-07-30T07:58:25.295Z,0.70
2022-07-30T08:00:54.984Z,0.50
2022-07-30T08:03:23.066Z,0.80
2022-07-30T08:06:00.812Z,0.80
2022-07-30T08:08:36.522Z,0.83
2022-07-30T08:11:07.341Z,0.80
2022-07-30T08:13:52.100Z,0.70
2022-07-30T08:16:21.450Z,0.63
2022-07-30T08:18:49.276Z,0.70
2022-07-30T08:21:17.484Z,0.80
2022-07-30T08:23:45.322Z,0.90
2022-07-30T08:26:14.589Z,0.77
2022-07-30T08:28:43.216Z,0.93
2022-07-30T08:31:11.038Z,0.80
2022-07-30T08:33:38.770Z,0.70
2022-07-30T08:36:09.626Z,0.60
2022-07-30T08:38:38.213Z,0.87
2022-07-30T08:41:06.057Z,0.60
2022-07-30T08:43:36.885Z,0.77
2022-07-30T08:46:09.899Z,0.53
2022-07-30T08:48:38.552Z,0.60
2022-07-30T08:51:06.606Z,0.60
2022-07-30T08:53:35.526Z,0.57
2022-07-30T08:56:03.495Z,0.80
2022-07-30T08:58:33.678Z,0.73
2022-07-30T09:01:03.838Z,0.73
2022-07-30T09:03:32.621Z,0.60
2022-07-30T09:06:01.745Z,0.70
2022-07-30T09:08:29.908Z,0.80
2022-07-30T09:10:57.747Z,0.53
2022-07-30T09:13:28.076Z,0.90
2022-07-30T09:15:56.835Z,0.60
2022-07-30T09:18:30.977Z,0.90
2022-07-30T09:21:00.770Z,0.80
2022-07-30T09:23:28.658Z,0.83
2022-07-30T09:26:00.906Z,1.00
2022-07-30T09:28:31.321Z,0.97
2022-07-30T09:30:59.130Z,0.90
2022-07-30T09:33:36.857Z,0.87
2022-07-30T09:36:07.110Z,1.10
2022-07-30T09:38:49.007Z,0.90
2022-07-30T09:41:37.773Z,0.80
2022-07-30T09:44:06.560Z,1.00
2022-07-30T09:46:47.583Z,0.60
2022-07-30T09:49:18.514Z,0.67
2022-07-30T09:51:54.547Z,0.97
2022-07-30T09:54:51.053Z,1.30
2022-07-30T09:57:26.309Z,0.80
2022-07-30T09:59:57.321Z,1.03
2022-07-30T10:02:32.211Z,0.97
2022-07-30T10:05:14.426Z,1.10
2022-07-30T10:07:51.001Z,1.13
2022-07-30T10:10:25.360Z,1.17
2022-07-30T10:12:55.516Z,1.07
2022-07-30T10:15:25.943Z,0.80
2022-07-30T10:17:55.709Z,0.80
2022-07-30T10:20:26.281Z,1.10
2022-07-30T10:22:54.451Z,1.05
2022-07-30T10:25:28.033Z,1.10
2022-07-30T10:27:57.036Z,1.07
2022-07-30T10:30:28.289Z,1.00
2022-07-30T10:32:58.140Z,0.90
2022-07-30T10:35:34.417Z,0.90
2022-07-30T10:38:13.859Z,1.00
2022-07-30T10:40:51.329Z,0.93
2022-07-30T10:43:38.561Z,0.80
2022-07-30T10:46:22.181Z,0.90
2022-07-30T10:48:51.201Z,0.90
2022-07-30T10:51:25.541Z,0.90
2022-07-30T10:54:02.598Z,1.00
2022-07-30T10:56:30.514Z,0.73
2022-07-30T10:59:05.545Z,0.75
2022-07-30T11:02:10.520Z,0.77
2022-07-30T11:04:38.324Z,0.70
2022-07-30T11:07:32.468Z,0.60
2022-07-30T11:10:09.362Z,0.88
2022-07-30T11:12:54.875Z,0.75
2022-07-30T11:15:22.832Z,0.70
2022-07-30T11:18:13.139Z,0.77
2022-07-30T11:20:48.759Z,0.50
2022-07-30T11:23:40.632Z,0.70
2022-07-30T11:26:14.094Z,0.80
2022-07-30T11:28:44.485Z,0.90
2022-07-30T11:31:55.818Z,0.75
2022-07-30T11:34:31.219Z,0.60
2022-07-30T11:37:18.923Z,0.80
2022-07-30T11:40:10.440Z,0.70
2022-07-30T11:42:40.164Z,0.70
2022-07-30T11:45:29.627Z,0.60
2022-07-30T11:48:00.897Z,0.50
2022-07-30T11:50:31.810Z,0.80
2022-07-30T11:53:01.834Z,0.50
2022-07-30T11:55:32.660Z,0.70
2022-07-30T11:58:02.219Z,0.70
2022-07-30T12:00:36.542Z,0.90
2022-07-30T12:03:17.209Z,0.82
2022-07-30T12:05:45.518Z,0.75
2022-07-30T12:08:35.263Z,0.80
2022-07-30T12:11:05.334Z,0.70
2022-07-30T12:13:44.133Z,0.80
2022-07-30T12:16:14.961Z,0.90
2022-07-30T12:18:45.115Z,0.85
2022-07-30T12:21:16.154Z,0.80
2022-07-30T12:23:54.322Z,0.60
2022-07-30T12:26:26.737Z,0.93
2022-07-30T12:28:55.968Z,0.90
2022-07-30T12:31:24.027Z,0.70
2022-07-30T12:33:51.794Z,0.88
2022-07-30T12:36:27.806Z,0.80
2022-07-30T12:38:57.829Z,0.80
2022-07-30T12:41:42.130Z,0.70
2022-07-30T12:44:10.047Z,0.80
2022-07-30T12:46:40.902Z,0.93
2022-07-30T12:49:22.283Z,0.60
2022-07-30T12:51:57.543Z,0.80
2022-07-30T12:54:28.594Z,0.90
2022-07-30T12:57:03.106Z,0.90
2022-07-30T12:59:33.736Z,0.70
2022-07-30T13:02:02.430Z,0.70
2022-07-30T13:04:31.847Z,0.93
2022-07-30T13:07:10.595Z,0.95
2022-07-30T13:09:39.946Z,1.10
2022-07-30T13:12:13.439Z,1.02
2022-07-30T13:14:41.178Z,0.90
2022-07-30T13:17:09.742Z,0.60
2022-07-30T13:19:37.608Z,0.90
2022-07-30T13:22:05.307Z,0.77
2022-07-30T13:24:34.086Z,0.82
2022-07-30T13:27:02.053Z,0.80
2022-07-30T13:29:31.311Z,0.93
2022-07-30T13:31:59.325Z,1.00
2022-07-30T13:34:27.042Z,1.00
2022-07-30T13:36:54.747Z,0.75
2022-07-30T13:39:22.793Z,0.80
2022-07-30T13:41:50.630Z,0.95
2022-07-30T13:44:18.363Z,0.90
2022-07-30T13:46:47.567Z,1.00
2022-07-30T13:49:20.196Z,0.95
2022-07-30T13:51:48.249Z,0.90
2022-07-30T13:54:16.510Z,0.95
2022-07-30T13:56:44.247Z,1.15
2022-07-30T13:59:12.105Z,0.80
2022-07-30T14:01:39.988Z,0.93
2022-07-30T14:04:09.281Z,1.08
2022-07-30T14:06:37.007Z,1.05
2022-07-30T14:09:06.724Z,0.90
2022-07-30T14:11:34.447Z,0.80
2022-07-30T14:14:02.234Z,0.80
2022-07-30T14:16:44.731Z,0.93
2022-07-30T14:19:24.310Z,0.85
2022-07-30T14:21:53.637Z,0.95
2022-07-30T14:24:22.233Z,1.10
2022-07-30T14:26:54.408Z,1.02
2022-07-30T14:29:25.300Z,1.05
2022-07-30T14:31:53.199Z,1.05
2022-07-30T14:34:22.550Z,1.20
2022-07-30T14:36:50.693Z,1.00
2022-07-30T14:39:21.003Z,1.08
2022-07-30T14:41:48.748Z,1.10
2022-07-30T14:44:21.380Z,1.20
2022-07-30T14:46:51.958Z,1.00
2022-07-30T14:49:31.122Z,1.00
2022-07-30T14:51:58.992Z,1.08
2022-07-30T14:54:27.912Z,1.00
2022-07-30T14:56:58.402Z,1.10
2022-07-30T14:59:27.828Z,1.05
2022-07-30T15:01:56.175Z,1.33
2022-07-30T15:04:26.996Z,1.10
2022-07-30T15:06:56.469Z,1.15
2022-07-30T15:09:24.192Z,1.45
2022-07-30T15:12:08.529Z,1.60
2022-07-30T15:14:38.220Z,1.20
2022-07-30T15:17:07.781Z,1.08
2022-07-30T15:19:35.723Z,1.33
2022-07-30T15:22:05.700Z,1.10
2022-07-30T15:24:34.116Z,1.20
2022-07-30T15:27:01.915Z,1.13
2022-07-30T15:29:30.288Z,1.20
2022-07-30T15:32:00.046Z,0.93
2022-07-30T15:34:34.573Z,1.27
2022-07-30T15:37:05.449Z,1.20
2022-07-30T15:39:33.964Z,1.25
2022-07-30T15:42:02.602Z,1.30
2022-07-30T15:44:31.034Z,1.20
2022-07-30T15:46:59.123Z,1.00
2022-07-30T15:49:27.114Z,1.17
2022-07-30T15:51:56.943Z,1.15
2022-07-30T15:54:26.837Z,1.10
2022-07-30T15:57:00.778Z,1.30
2022-07-30T15:59:29.774Z,1.30
2022-07-30T16:01:57.918Z,1.08
2022-07-30T16:04:31.203Z,1.20
2022-07-30T16:07:04.186Z,1.50
2022-07-30T16:09:33.277Z,1.40
2022-07-30T16:12:02.160Z,1.50
2022-07-30T16:14:30.258Z,1.13
2022-07-30T16:16:58.081Z,1.35
2022-07-30T16:19:25.833Z,1.23
2022-07-30T16:21:53.782Z,1.50
2022-07-30T16:24:21.753Z,1.30
2022-07-30T16:26:50.839Z,1.40
2022-07-30T16:29:18.933Z,1.30
2022-07-30T16:31:47.365Z,1.10
2022-07-30T16:34:15.162Z,1.30
2022-07-30T16:36:42.937Z,1.38
2022-07-30T16:39:10.713Z,1.30
2022-07-30T16:41:38.626Z,1.30
2022-07-30T16:44:07.705Z,1.10
2022-07-30T16:46:36.992Z,1.20
2022-07-30T16:49:04.915Z,1.38
2022-07-30T16:51:32.739Z,1.83
2022-07-30T16:54:00.694Z,1.30
2022-07-30T16:56:28.977Z,1.45
2022-07-30T16:58:56.777Z,1.40
2022-07-30T17:01:26.001Z,1.27
2022-07-30T17:03:53.893Z,1.50
2022-07-30T17:06:21.618Z,1.85
2022-07-30T17:08:50.955Z,2.00
2022-07-30T17:11:46.324Z,1.80
2022-07-30T17:14:07.407Z,1.55
2022-07-30T17:16:36.811Z,1.40
2022-07-30T17:19:09.263Z,1.55
2022-07-30T17:21:38.125Z,1.80
2022-07-30T17:24:11.279Z,1.42
2022-07-30T17:26:41.804Z,1.70
2022-07-30T17:29:13.891Z,1.35
2022-07-30T17:31:44.412Z,1.50
2022-07-30T17:34:13.857Z,1.42
2022-07-30T17:36:50.169Z,1.50
2022-07-30T17:40:19.357Z,1.42
2022-07-30T17:42:08.874Z,1.52
2022-07-30T17:44:39.975Z,1.42
2022-07-30T17:47:15.178Z,1.85
2022-07-30T17:49:44.682Z,1.50
2022-07-30T17:52:12.566Z,1.48
2022-07-30T17:54:40.804Z,1.30
2022-07-30T17:57:08.819Z,1.35
2022-07-30T17:59:36.599Z,1.50
2022-07-30T18:02:05.129Z,1.50
2022-07-30T18:04:34.942Z,1.70
2022-07-30T18:07:06.175Z,1.35
2022-07-30T18:09:39.615Z,1.70
2022-07-30T18:12:08.517Z,1.38
2022-07-30T18:14:37.403Z,1.70
2022-07-30T18:17:05.565Z,1.65
2022-07-30T18:19:41.151Z,2.00
2022-07-30T18:22:10.774Z,2.10
2022-07-30T18:24:44.007Z,1.88
2022-07-30T18:27:12.693Z,1.90
2022-07-30T18:29:40.506Z,2.00
2022-07-30T18:32:08.843Z,1.83
2022-07-30T18:34:38.206Z,1.67
2022-07-30T18:37:06.219Z,1.70
2022-07-30T18:39:33.930Z,1.70
2022-07-30T18:42:02.295Z,2.17
2022-07-30T18:44:30.505Z,1.70
2022-07-30T18:46:58.388Z,1.95
2022-07-30T18:49:36.678Z,1.70
2022-07-30T18:52:08.013Z,2.20
2022-07-30T18:54:36.362Z,1.70
2022-07-30T18:57:04.633Z,1.73
2022-07-30T18:59:32.684Z,1.58
2022-07-30T19:02:00.828Z,1.45
2022-07-30T19:04:28.916Z,1.77
2022-07-30T19:06:56.728Z,1.70
2022-07-30T19:09:28.794Z,1.73
2022-07-30T19:11:56.725Z,1.35
2022-07-30T19:14:24.503Z,1.30
2022-07-30T19:16:52.611Z,1.30
2022-07-30T19:19:20.490Z,1.45
2022-07-30T19:21:48.258Z,1.38
2022-07-30T19:24:15.961Z,1.55
2022-07-30T19:26:45.523Z,1.30
2022-07-30T19:29:13.402Z,1.50
2022-07-30T19:31:41.621Z,1.65
2022-07-30T19:34:11.798Z,1.30
2022-07-30T19:36:39.958Z,1.30
2022-07-30T19:39:09.395Z,1.60
2022-07-30T19:41:41.442Z,1.25
2022-07-30T19:44:12.025Z,1.17
2022-07-30T19:46:43.003Z,1.50
2022-07-30T19:49:11.441Z,1.38
2022-07-30T19:52:07.007Z,1.65
2022-07-30T19:54:29.734Z,1.40
2022-07-30T19:56:57.549Z,1.17
2022-07-30T19:59:45.877Z,1.13
2022-07-30T20:02:15.728Z,1.17
2022-07-30T20:04:43.870Z,1.40
2022-07-30T20:07:12.124Z,1.40
2022-07-30T20:12:29.155Z,1.00
2022-07-30T20:15:01.093Z,1.30
2022-07-30T20:17:29.079Z,1.17
2022-07-30T20:20:03.091Z,1.05
2022-07-30T20:22:34.285Z,1.00
2022-07-30T20:25:02.972Z,0.93
2022-07-30T20:27:37.243Z,0.80
2022-07-30T20:30:10.040Z,1.05
2022-07-30T20:32:42.307Z,0.85
2022-07-30T20:35:14.493Z,0.90
2022-07-30T20:37:54.642Z,0.80
2022-07-30T20:40:24.256Z,1.00
2022-07-30T20:42:55.275Z,0.73
2022-07-30T20:45:37.795Z,1.08
2022-07-30T20:48:17.309Z,1.10
2022-07-30T20:50:55.097Z,1.00
2022-07-30T20:53:23.107Z,0.80
2022-07-30T20:55:53.646Z,0.80
2022-07-30T20:58:21.760Z,1.08
2022-07-30T21:00:52.306Z,0.80
2022-07-30T21:03:21.437Z,0.80
2022-07-30T21:05:52.342Z,1.00
2022-07-30T21:08:20.488Z,0.90
2022-07-30T21:10:48.223Z,0.95
2022-07-30T21:13:16.041Z,0.93
2022-07-30T21:16:01.572Z,0.93
2022-07-30T21:18:32.953Z,0.93
2022-07-30T21:21:01.066Z,1.00
2022-07-30T21:23:32.859Z,0.80
2022-07-30T21:26:05.867Z,0.80
2022-07-30T21:28:35.838Z,0.70
2022-07-30T21:31:06.998Z,0.82
2022-07-30T21:33:36.742Z,1.00
2022-07-30T21:36:05.391Z,0.90
2022-07-30T21:38:38.912Z,0.70
2022-07-30T21:41:11.123Z,0.80
2022-07-30T21:43:42.359Z,0.93
2022-07-30T21:46:11.058Z,0.80
2022-07-30T21:48:41.136Z,0.85
2022-07-30T21:51:09.503Z,0.98
2022-07-30T21:53:45.276Z,0.95
2022-07-30T21:56:15.956Z,0.90
2022-07-30T21:58:44.536Z,0.77
2022-07-30T22:01:17.188Z,1.15
2022-07-30T22:04:02.640Z,1.00
2022-07-30T22:06:36.575Z,0.90
2022-07-30T22:09:19.419Z,1.00
2022-07-30T22:11:55.807Z,1.33
2022-07-30T22:14:25.503Z,0.80
2022-07-30T22:16:53.713Z,1.10
2022-07-30T22:19:25.850Z,1.10
2022-07-30T22:21:54.249Z,1.30
2022-07-30T22:24:28.775Z,1.17
2022-07-30T22:26:57.776Z,1.20
2022-07-30T22:29:34.496Z,1.00
2022-07-30T22:32:04.303Z,1.15
2022-07-30T22:34:33.790Z,1.23
2022-07-30T22:37:01.675Z,1.08
2022-07-30T22:39:31.495Z,1.20
2022-07-30T22:42:00.702Z,1.38
2022-07-30T22:44:29.173Z,1.10
2022-07-30T22:46:56.908Z,1.20
2022-07-30T22:49:26.413Z,1.27
2022-07-30T22:52:19.301Z,1.25
2022-07-30T22:55:09.127Z,1.23
2022-07-30T22:57:38.388Z,1.20
2022-07-30T23:00:12.233Z,1.30
2022-07-30T23:02:40.461Z,1.38
2022-07-30T23:05:10.001Z,1.30
2022-07-30T23:07:40.478Z,1.30
2022-07-30T23:10:12.318Z,1.17
2022-07-30T23:12:16.785Z,1.60
2022-07-30T23:12:47.832Z,1.60
2022-07-30T23:15:15.911Z,1.25
2022-07-30T23:17:44.537Z,1.40
2022-07-30T23:20:15.993Z,1.48
2022-07-30T23:22:45.293Z,1.33
2022-07-30T23:25:14.339Z,1.02
2022-07-30T23:27:42.587Z,1.20
2022-07-30T23:30:12.170Z,1.20
2022-07-30T23:32:40.778Z,1.25
2022-07-30T23:35:09.985Z,1.35
2022-07-30T23:37:48.200Z,1.10
2022-07-30T23:40:18.835Z,1.25
2022-07-30T23:42:47.447Z,1.33
2022-07-30T23:45:15.756Z,1.00
2022-07-30T23:47:54.564Z,1.13
2022-07-30T23:50:31.862Z,1.00
2022-07-30T23:52:59.829Z,1.00
2022-07-30T23:55:29.336Z,0.93
2022-07-30T23:57:58.064Z,1.50
